createdAt,value
2018-09-26T16:02:38.310Z,0.80
2018-09-26T16:05:06.757Z,0.70
2018-09-26T16:07:34.922Z,0.60
2018-09-26T16:10:03.371Z,0.90
2018-09-26T16:12:31.948Z,0.90
2018-09-26T16:15:00.104Z,0.80
2018-09-26T16:17:28.262Z,0.57
2018-09-26T16:19:56.523Z,0.90
2018-09-26T16:22:24.894Z,1.03
2018-09-26T16:24:53.108Z,1.40
2018-09-26T16:27:35.945Z,0.90
2018-09-26T16:30:04.439Z,0.80
2018-09-26T16:32:33.412Z,1.13
2018-09-26T16:35:01.601Z,1.17
2018-09-26T16:37:29.852Z,0.80
2018-09-26T16:39:58.038Z,0.87
2018-09-26T16:42:26.229Z,1.00
2018-09-26T16:44:54.459Z,1.00
2018-09-26T16:47:22.638Z,1.07
2018-09-26T16:49:50.838Z,1.43
2018-09-26T16:52:19.071Z,1.17
2018-09-26T16:54:47.156Z,1.20
2018-09-26T16:57:15.384Z,1.60
2018-09-26T16:59:43.540Z,1.20
2018-09-26T17:02:11.858Z,1.30
2018-09-26T17:04:39.993Z,1.47
2018-09-26T17:07:08.192Z,1.30
2018-09-26T17:09:36.368Z,1.93
2018-09-26T17:12:05.411Z,1.43
2018-09-26T17:14:33.600Z,1.17
2018-09-26T17:17:01.801Z,2.30
2018-09-26T17:19:30.078Z,1.77
2018-09-26T17:21:58.216Z,2.00
2018-09-26T17:24:26.408Z,1.83
2018-09-26T17:26:55.315Z,1.23
2018-09-26T17:29:23.496Z,1.50
2018-09-26T17:31:51.661Z,1.80
2018-09-26T17:34:19.869Z,1.67
2018-09-26T17:36:47.996Z,1.80
2018-09-26T17:39:16.173Z,0.97
2018-09-26T17:41:44.367Z,1.70
2018-09-26T17:44:12.569Z,1.50
2018-09-26T17:46:40.685Z,1.20
2018-09-26T17:49:08.905Z,1.47
2018-09-26T17:51:37.121Z,1.80
2018-09-26T17:54:05.274Z,1.13
2018-09-26T17:56:33.439Z,1.90
2018-09-26T17:59:01.624Z,1.43
2018-09-26T18:01:29.853Z,1.10
2018-09-26T18:03:57.972Z,1.53
2018-09-26T18:06:26.121Z,1.50
2018-09-26T18:08:54.345Z,1.20
2018-09-26T18:11:22.448Z,1.80
2018-09-26T18:13:50.613Z,1.90
2018-09-26T18:16:18.766Z,2.73
2018-09-26T18:18:46.907Z,2.17
2018-09-26T18:21:15.081Z,2.27
2018-09-26T18:23:43.255Z,2.73
2018-09-26T18:26:11.704Z,1.90
2018-09-26T18:28:39.839Z,1.87
2018-09-26T18:31:08.100Z,2.10
2018-09-26T18:33:36.267Z,1.70
2018-09-26T18:36:04.392Z,2.10
2018-09-26T18:38:32.580Z,2.60
2018-09-26T18:41:00.740Z,2.27
2018-09-26T18:43:28.895Z,2.03
2018-09-26T18:45:57.073Z,2.80
2018-09-26T18:48:25.244Z,2.40
2018-09-26T18:50:53.408Z,2.40
2018-09-26T18:53:21.609Z,1.83
2018-09-26T18:55:49.732Z,2.20
2018-09-26T18:58:17.879Z,2.60
2018-09-26T19:00:46.031Z,2.80
2018-09-26T19:03:14.195Z,2.77
2018-09-26T19:05:42.334Z,2.10
2018-09-26T19:08:10.483Z,2.50
2018-09-26T19:10:38.659Z,3.73
2018-09-26T19:13:06.800Z,2.10
2018-09-26T19:15:34.948Z,1.47
2018-09-26T19:18:03.129Z,2.73
2018-09-26T19:20:31.271Z,3.03
2018-09-26T19:22:59.433Z,2.60
2018-09-26T19:25:27.592Z,2.37
2018-09-26T19:27:55.836Z,1.80
2018-09-26T19:30:23.942Z,2.13
2018-09-26T19:32:52.104Z,2.50
2018-09-26T19:35:20.274Z,2.77
2018-09-26T19:37:48.654Z,2.90
2018-09-26T19:40:16.816Z,2.53
2018-09-26T19:42:44.979Z,2.50
2018-09-26T19:45:13.173Z,2.93
2018-09-26T19:47:41.324Z,2.20
2018-09-26T19:50:09.544Z,2.20
2018-09-26T19:52:37.870Z,1.93
2018-09-26T19:55:05.924Z,2.30
2018-09-26T19:57:34.093Z,2.77
2018-09-26T20:00:02.278Z,1.97
2018-09-26T20:02:30.433Z,2.37
2018-09-26T20:04:58.600Z,2.97
2018-09-26T20:07:26.761Z,3.50
2018-09-26T20:09:54.931Z,2.90
2018-09-26T20:12:23.101Z,2.87
2018-09-26T20:14:51.276Z,4.00
2018-09-26T20:17:19.547Z,3.53
2018-09-26T20:19:47.728Z,4.00
2018-09-26T20:22:15.919Z,4.40
2018-09-26T20:24:44.069Z,4.50
2018-09-26T20:27:12.286Z,3.50
2018-09-26T20:29:40.525Z,3.20
2018-09-26T20:32:08.546Z,4.33
2018-09-26T20:34:36.705Z,4.23
2018-09-26T20:37:04.945Z,5.33
2018-09-26T20:39:33.042Z,3.50
2018-09-26T20:42:01.200Z,4.00
2018-09-26T20:44:29.400Z,4.33
2018-09-26T20:46:58.116Z,3.80
2018-09-26T20:49:26.325Z,3.83
2018-09-26T20:51:54.520Z,3.30
2018-09-26T20:54:22.653Z,3.50
2018-09-26T20:56:50.849Z,3.73
2018-09-26T20:59:19.025Z,3.30
2018-09-26T21:01:47.185Z,2.97
2018-09-26T21:04:15.323Z,3.50
2018-09-26T21:06:43.496Z,3.30
2018-09-26T21:09:11.785Z,2.90
2018-09-26T21:11:40.227Z,3.20
2018-09-26T21:14:08.572Z,3.17
2018-09-26T21:16:36.877Z,3.50
2018-09-26T21:19:05.058Z,4.40
2018-09-26T21:21:33.244Z,3.40
2018-09-26T21:24:01.415Z,4.30
2018-09-26T21:26:29.600Z,3.37
2018-09-26T21:28:57.742Z,3.70
2018-09-26T21:31:25.976Z,3.20
2018-09-26T21:33:54.073Z,3.73
2018-09-26T21:36:22.293Z,4.43
2018-09-26T21:38:50.464Z,3.20
2018-09-26T21:41:18.588Z,4.33
2018-09-26T21:43:46.732Z,5.30
2018-09-26T21:46:14.886Z,3.70
2018-09-26T21:48:43.050Z,5.87
2018-09-26T21:51:11.196Z,4.40
2018-09-26T21:53:39.336Z,4.73
2018-09-26T21:56:07.494Z,5.47
2018-09-26T21:58:35.616Z,4.43
